sensor_id;sensor_type;location;lat;lon;timestamp;temperature;humidity
25328;DHT22;13279;51.300;12.394;2022-12-07T00:01:56;2.70;99.90
25328;DHT22;13279;51.300;12.394;2022-12-07T00:04:24;2.60;99.90
25328;DHT22;13279;51.300;12.394;2022-12-07T00:06:52;2.60;99.90
25328;DHT22;13279;51.300;12.394;2022-12-07T00:09:20;2.60;99.90
25328;DHT22;13279;51.300;12.394;2022-12-07T00:11:49;2.60;99.90
25328;DHT22;13279;51.300;12.394;2022-12-07T00:14:18;2.70;99.90
25328;DHT22;13279;51.300;12.394;2022-12-07T00:16:49;2.60;99.90
25328;DHT22;13279;51.300;12.394;2022-12-07T00:19:17;2.60;99.90
25328;DHT22;13279;51.300;12.394;2022-12-07T00:21:45;2.60;99.90
25328;DHT22;13279;51.300;12.394;2022-12-07T00:24:13;2.60;99.90
25328;DHT22;13279;51.300;12.394;2022-12-07T00:26:41;2.60;99.90
25328;DHT22;13279;51.300;12.394;2022-12-07T00:29:13;2.60;99.90
25328;DHT22;13279;51.300;12.394;2022-12-07T00:31:42;2.50;99.90
25328;DHT22;13279;51.300;12.394;2022-12-07T00:34:14;2.50;99.90
25328;DHT22;13279;51.300;12.394;2022-12-07T00:36:42;2.40;99.90
25328;DHT22;13279;51.300;12.394;2022-12-07T00:39:09;2.40;99.90
25328;DHT22;13279;51.300;12.394;2022-12-07T00:41:37;2.40;99.90
25328;DHT22;13279;51.300;12.394;2022-12-07T00:44:04;2.30;99.90
25328;DHT22;13279;51.300;12.394;2022-12-07T00:46:32;2.30;99.90
25328;DHT22;13279;51.300;12.394;2022-12-07T00:48:59;2.30;99.90
25328;DHT22;13279;51.300;12.394;2022-12-07T00:51:28;2.20;99.90
25328;DHT22;13279;51.300;12.394;2022-12-07T00:53:56;2.20;99.90
25328;DHT22;13279;51.300;12.394;2022-12-07T00:56:26;2.10;99.90
25328;DHT22;13279;51.300;12.394;2022-12-07T00:58:55;2.10;99.90
25328;DHT22;13279;51.300;12.394;2022-12-07T01:01:23;2.00;99.90
25328;DHT22;13279;51.300;12.394;2022-12-07T01:03:51;2.00;99.90
25328;DHT22;13279;51.300;12.394;2022-12-07T01:06:21;2.00;99.90
25328;DHT22;13279;51.300;12.394;2022-12-07T01:08:50;1.90;99.90
25328;DHT22;13279;51.300;12.394;2022-12-07T01:11:20;1.90;99.90
25328;DHT22;13279;51.300;12.394;2022-12-07T01:14:12;1.90;99.90
25328;DHT22;13279;51.300;12.394;2022-12-07T01:16:39;1.80;99.90
25328;DHT22;13279;51.300;12.394;2022-12-07T01:19:07;1.80;99.90
25328;DHT22;13279;51.300;12.394;2022-12-07T01:21:35;1.80;99.90
25328;DHT22;13279;51.300;12.394;2022-12-07T01:24:06;1.70;99.90
25328;DHT22;13279;51.300;12.394;2022-12-07T01:26:34;1.70;99.90
25328;DHT22;13279;51.300;12.394;2022-12-07T01:29:02;1.60;99.90
25328;DHT22;13279;51.300;12.394;2022-12-07T01:31:29;1.60;99.90
25328;DHT22;13279;51.300;12.394;2022-12-07T01:33:58;1.60;99.90
25328;DHT22;13279;51.300;12.394;2022-12-07T01:36:28;1.60;99.90
25328;DHT22;13279;51.300;12.394;2022-12-07T01:38:57;1.60;99.90
25328;DHT22;13279;51.300;12.394;2022-12-07T01:41:28;1.50;99.90
25328;DHT22;13279;51.300;12.394;2022-12-07T01:44:17;1.50;99.90
25328;DHT22;13279;51.300;12.394;2022-12-07T01:46:47;1.50;99.90
25328;DHT22;13279;51.300;12.394;2022-12-07T01:49:20;1.50;99.90
25328;DHT22;13279;51.300;12.394;2022-12-07T01:51:49;1.40;99.90
25328;DHT22;13279;51.300;12.394;2022-12-07T01:54:19;1.40;99.90
25328;DHT22;13279;51.300;12.394;2022-12-07T01:56:50;1.40;99.90
25328;DHT22;13279;51.300;12.394;2022-12-07T01:59:22;1.30;99.90
25328;DHT22;13279;51.300;12.394;2022-12-07T02:01:52;1.30;99.90
25328;DHT22;13279;51.300;12.394;2022-12-07T02:04:20;1.30;99.90
25328;DHT22;13279;51.300;12.394;2022-12-07T02:06:48;1.30;99.90
25328;DHT22;13279;51.300;12.394;2022-12-07T02:09:17;1.30;99.90
25328;DHT22;13279;51.300;12.394;2022-12-07T02:11:44;1.30;99.90
25328;DHT22;13279;51.300;12.394;2022-12-07T02:14:13;1.20;99.90
25328;DHT22;13279;51.300;12.394;2022-12-07T02:16:48;1.20;99.90
25328;DHT22;13279;51.300;12.394;2022-12-07T02:19:56;1.20;99.90
25328;DHT22;13279;51.300;12.394;2022-12-07T02:28:06;1.20;99.90
25328;DHT22;13279;51.300;12.394;2022-12-07T02:30:40;1.20;99.90
25328;DHT22;13279;51.300;12.394;2022-12-07T02:33:14;1.20;99.90
25328;DHT22;13279;51.300;12.394;2022-12-07T02:35:48;1.20;99.90
25328;DHT22;13279;51.300;12.394;2022-12-07T02:38:21;1.20;99.90
25328;DHT22;13279;51.300;12.394;2022-12-07T02:40:54;1.20;99.90
25328;DHT22;13279;51.300;12.394;2022-12-07T02:43:25;1.20;99.90
25328;DHT22;13279;51.300;12.394;2022-12-07T02:46:00;1.20;99.90
25328;DHT22;13279;51.300;12.394;2022-12-07T02:48:30;1.20;99.90
25328;DHT22;13279;51.300;12.394;2022-12-07T02:50:58;1.20;99.90
25328;DHT22;13279;51.300;12.394;2022-12-07T02:53:34;1.20;99.90
25328;DHT22;13279;51.300;12.394;2022-12-07T02:56:06;1.20;99.90
25328;DHT22;13279;51.300;12.394;2022-12-07T02:58:43;1.20;99.90
25328;DHT22;13279;51.300;12.394;2022-12-07T03:01:26;1.20;99.90
25328;DHT22;13279;51.300;12.394;2022-12-07T03:04:02;1.20;99.90
25328;DHT22;13279;51.300;12.394;2022-12-07T03:06:37;1.20;99.90
25328;DHT22;13279;51.300;12.394;2022-12-07T03:09:14;1.20;99.90
25328;DHT22;13279;51.300;12.394;2022-12-07T03:11:46;1.30;99.90
25328;DHT22;13279;51.300;12.394;2022-12-07T03:14:18;1.30;99.90
25328;DHT22;13279;51.300;12.394;2022-12-07T03:16:52;1.30;99.90
25328;DHT22;13279;51.300;12.394;2022-12-07T03:19:22;1.30;99.90
25328;DHT22;13279;51.300;12.394;2022-12-07T03:21:54;1.30;99.90
25328;DHT22;13279;51.300;12.394;2022-12-07T03:24:27;1.30;99.90
25328;DHT22;13279;51.300;12.394;2022-12-07T03:27:01;1.30;99.90
25328;DHT22;13279;51.300;12.394;2022-12-07T03:29:33;1.40;99.90
25328;DHT22;13279;51.300;12.394;2022-12-07T03:32:06;1.30;99.90
25328;DHT22;13279;51.300;12.394;2022-12-07T03:34:39;1.30;99.90
25328;DHT22;13279;51.300;12.394;2022-12-07T03:37:12;1.30;99.90
25328;DHT22;13279;51.300;12.394;2022-12-07T03:39:46;1.30;99.90
25328;DHT22;13279;51.300;12.394;2022-12-07T03:42:17;1.30;99.90
25328;DHT22;13279;51.300;12.394;2022-12-07T03:44:45;1.30;99.90
25328;DHT22;13279;51.300;12.394;2022-12-07T03:47:19;1.30;99.90
25328;DHT22;13279;51.300;12.394;2022-12-07T03:49:53;1.30;99.90
25328;DHT22;13279;51.300;12.394;2022-12-07T03:52:25;1.30;99.90
25328;DHT22;13279;51.300;12.394;2022-12-07T03:54:56;1.30;99.90
25328;DHT22;13279;51.300;12.394;2022-12-07T03:57:26;1.40;99.90
25328;DHT22;13279;51.300;12.394;2022-12-07T03:59:58;1.40;99.90
25328;DHT22;13279;51.300;12.394;2022-12-07T04:02:29;1.40;99.90
25328;DHT22;13279;51.300;12.394;2022-12-07T04:04:57;1.50;99.90
25328;DHT22;13279;51.300;12.394;2022-12-07T04:07:24;1.50;99.90
25328;DHT22;13279;51.300;12.394;2022-12-07T04:09:52;1.50;99.90
25328;DHT22;13279;51.300;12.394;2022-12-07T04:12:20;1.50;99.90
25328;DHT22;13279;51.300;12.394;2022-12-07T04:14:48;1.60;99.90
25328;DHT22;13279;51.300;12.394;2022-12-07T04:17:15;1.60;99.90
25328;DHT22;13279;51.300;12.394;2022-12-07T04:19:44;1.70;99.90
25328;DHT22;13279;51.300;12.394;2022-12-07T04:22:12;1.70;99.90
25328;DHT22;13279;51.300;12.394;2022-12-07T04:24:43;1.70;99.90
25328;DHT22;13279;51.300;12.394;2022-12-07T04:27:11;1.80;99.90
25328;DHT22;13279;51.300;12.394;2022-12-07T04:29:38;1.80;99.90
25328;DHT22;13279;51.300;12.394;2022-12-07T04:32:06;1.80;99.90
25328;DHT22;13279;51.300;12.394;2022-12-07T04:34:34;1.80;99.90
25328;DHT22;13279;51.300;12.394;2022-12-07T04:37:03;1.80;99.90
25328;DHT22;13279;51.300;12.394;2022-12-07T04:39:32;1.90;99.90
25328;DHT22;13279;51.300;12.394;2022-12-07T04:42:00;1.80;99.90
25328;DHT22;13279;51.300;12.394;2022-12-07T04:44:29;1.80;99.90
25328;DHT22;13279;51.300;12.394;2022-12-07T04:46:57;1.80;99.90
25328;DHT22;13279;51.300;12.394;2022-12-07T04:49:24;1.80;99.90
25328;DHT22;13279;51.300;12.394;2022-12-07T04:51:52;1.80;99.90
25328;DHT22;13279;51.300;12.394;2022-12-07T04:54:21;1.80;99.90
25328;DHT22;13279;51.300;12.394;2022-12-07T04:56:48;1.80;99.90
25328;DHT22;13279;51.300;12.394;2022-12-07T04:59:17;1.90;99.90
25328;DHT22;13279;51.300;12.394;2022-12-07T05:01:44;1.90;99.90
25328;DHT22;13279;51.300;12.394;2022-12-07T05:04:12;1.90;99.90
25328;DHT22;13279;51.300;12.394;2022-12-07T05:06:42;1.90;99.90
25328;DHT22;13279;51.300;12.394;2022-12-07T05:09:09;2.00;99.90
25328;DHT22;13279;51.300;12.394;2022-12-07T05:11:38;2.00;99.90
25328;DHT22;13279;51.300;12.394;2022-12-07T05:14:08;2.00;99.90
25328;DHT22;13279;51.300;12.394;2022-12-07T05:16:36;2.00;99.90
25328;DHT22;13279;51.300;12.394;2022-12-07T05:19:04;2.10;99.90
25328;DHT22;13279;51.300;12.394;2022-12-07T05:21:32;2.10;99.90
25328;DHT22;13279;51.300;12.394;2022-12-07T05:24:00;2.10;99.90
25328;DHT22;13279;51.300;12.394;2022-12-07T05:26:27;2.20;99.90
25328;DHT22;13279;51.300;12.394;2022-12-07T05:28:57;2.20;99.90
25328;DHT22;13279;51.300;12.394;2022-12-07T05:31:26;2.20;99.90
25328;DHT22;13279;51.300;12.394;2022-12-07T05:33:53;2.20;99.90
25328;DHT22;13279;51.300;12.394;2022-12-07T05:36:22;2.30;99.90
25328;DHT22;13279;51.300;12.394;2022-12-07T05:38:49;2.30;99.90
25328;DHT22;13279;51.300;12.394;2022-12-07T05:41:18;2.30;99.90
25328;DHT22;13279;51.300;12.394;2022-12-07T05:44:05;2.30;99.90
25328;DHT22;13279;51.300;12.394;2022-12-07T05:46:33;2.30;99.90
25328;DHT22;13279;51.300;12.394;2022-12-07T05:49:00;2.30;99.90
25328;DHT22;13279;51.300;12.394;2022-12-07T05:51:28;2.30;99.90
25328;DHT22;13279;51.300;12.394;2022-12-07T05:53:56;2.30;99.90
25328;DHT22;13279;51.300;12.394;2022-12-07T05:56:23;2.30;99.90
25328;DHT22;13279;51.300;12.394;2022-12-07T05:58:52;2.40;99.90
25328;DHT22;13279;51.300;12.394;2022-12-07T06:01:39;2.40;99.90
25328;DHT22;13279;51.300;12.394;2022-12-07T06:04:07;2.30;99.90
25328;DHT22;13279;51.300;12.394;2022-12-07T06:06:34;2.40;99.90
25328;DHT22;13279;51.300;12.394;2022-12-07T06:09:02;2.40;99.90
25328;DHT22;13279;51.300;12.394;2022-12-07T06:11:30;2.40;99.90
25328;DHT22;13279;51.300;12.394;2022-12-07T06:14:20;2.40;99.90
25328;DHT22;13279;51.300;12.394;2022-12-07T06:16:49;2.40;99.90
25328;DHT22;13279;51.300;12.394;2022-12-07T06:19:17;2.40;99.90
25328;DHT22;13279;51.300;12.394;2022-12-07T06:21:44;2.50;99.90
25328;DHT22;13279;51.300;12.394;2022-12-07T06:24:13;2.40;99.90
25328;DHT22;13279;51.300;12.394;2022-12-07T06:26:41;2.40;99.90
25328;DHT22;13279;51.300;12.394;2022-12-07T06:29:08;2.50;99.90
25328;DHT22;13279;51.300;12.394;2022-12-07T06:31:37;2.40;99.90
25328;DHT22;13279;51.300;12.394;2022-12-07T06:34:08;2.40;99.90
25328;DHT22;13279;51.300;12.394;2022-12-07T06:36:37;2.40;99.90
25328;DHT22;13279;51.300;12.394;2022-12-07T06:39:05;2.40;99.90
25328;DHT22;13279;51.300;12.394;2022-12-07T06:41:35;2.30;99.90
25328;DHT22;13279;51.300;12.394;2022-12-07T06:44:03;2.30;99.90
25328;DHT22;13279;51.300;12.394;2022-12-07T06:46:30;2.30;99.90
25328;DHT22;13279;51.300;12.394;2022-12-07T06:48:58;2.30;99.90
25328;DHT22;13279;51.300;12.394;2022-12-07T06:51:27;2.30;99.90
25328;DHT22;13279;51.300;12.394;2022-12-07T06:53:55;2.30;99.90
25328;DHT22;13279;51.300;12.394;2022-12-07T06:56:23;2.30;99.90
25328;DHT22;13279;51.300;12.394;2022-12-07T06:58:51;2.30;99.90
25328;DHT22;13279;51.300;12.394;2022-12-07T07:01:19;2.30;99.90
25328;DHT22;13279;51.300;12.394;2022-12-07T07:03:47;2.30;99.90
25328;DHT22;13279;51.300;12.394;2022-12-07T07:06:15;2.30;99.90
25328;DHT22;13279;51.300;12.394;2022-12-07T07:08:43;2.30;99.90
25328;DHT22;13279;51.300;12.394;2022-12-07T07:11:11;2.40;99.90
25328;DHT22;13279;51.300;12.394;2022-12-07T07:13:38;2.40;99.90
25328;DHT22;13279;51.300;12.394;2022-12-07T07:16:07;2.40;99.90
25328;DHT22;13279;51.300;12.394;2022-12-07T07:18:36;2.40;99.90
25328;DHT22;13279;51.300;12.394;2022-12-07T07:21:04;2.40;99.90
25328;DHT22;13279;51.300;12.394;2022-12-07T07:23:32;2.40;99.90
25328;DHT22;13279;51.300;12.394;2022-12-07T07:26:02;2.50;99.90
25328;DHT22;13279;51.300;12.394;2022-12-07T07:28:29;2.40;99.90
25328;DHT22;13279;51.300;12.394;2022-12-07T07:30:57;2.50;99.90
25328;DHT22;13279;51.300;12.394;2022-12-07T07:33:25;2.50;99.90
25328;DHT22;13279;51.300;12.394;2022-12-07T07:35:53;2.50;99.90
25328;DHT22;13279;51.300;12.394;2022-12-07T07:38:20;2.50;99.90
25328;DHT22;13279;51.300;12.394;2022-12-07T07:40:48;2.40;99.90
25328;DHT22;13279;51.300;12.394;2022-12-07T07:43:17;2.50;99.90
25328;DHT22;13279;51.300;12.394;2022-12-07T07:45:45;2.50;99.90
25328;DHT22;13279;51.300;12.394;2022-12-07T07:48:13;2.50;99.90
25328;DHT22;13279;51.300;12.394;2022-12-07T07:50:40;2.50;99.90
25328;DHT22;13279;51.300;12.394;2022-12-07T07:53:08;2.60;99.90
25328;DHT22;13279;51.300;12.394;2022-12-07T07:55:35;2.60;99.90
25328;DHT22;13279;51.300;12.394;2022-12-07T07:58:03;2.70;99.90
25328;DHT22;13279;51.300;12.394;2022-12-07T08:00:31;2.70;99.90
25328;DHT22;13279;51.300;12.394;2022-12-07T08:03:01;2.80;99.90
25328;DHT22;13279;51.300;12.394;2022-12-07T08:05:28;2.80;99.90
25328;DHT22;13279;51.300;12.394;2022-12-07T08:07:57;2.90;99.90
25328;DHT22;13279;51.300;12.394;2022-12-07T08:10:25;2.90;99.90
25328;DHT22;13279;51.300;12.394;2022-12-07T08:12:52;3.00;99.90
25328;DHT22;13279;51.300;12.394;2022-12-07T08:15:42;3.00;99.90
25328;DHT22;13279;51.300;12.394;2022-12-07T08:18:11;3.00;99.90
25328;DHT22;13279;51.300;12.394;2022-12-07T08:20:39;3.00;99.90
25328;DHT22;13279;51.300;12.394;2022-12-07T08:23:07;3.00;99.90
25328;DHT22;13279;51.300;12.394;2022-12-07T08:25:34;3.00;99.90
25328;DHT22;13279;51.300;12.394;2022-12-07T08:28:02;3.00;99.90
25328;DHT22;13279;51.300;12.394;2022-12-07T08:30:30;3.10;99.90
25328;DHT22;13279;51.300;12.394;2022-12-07T08:32:59;3.10;99.90
25328;DHT22;13279;51.300;12.394;2022-12-07T08:35:26;3.10;99.90
25328;DHT22;13279;51.300;12.394;2022-12-07T08:37:54;3.10;99.90
25328;DHT22;13279;51.300;12.394;2022-12-07T08:40:23;3.20;99.90
25328;DHT22;13279;51.300;12.394;2022-12-07T08:42:51;3.30;99.90
25328;DHT22;13279;51.300;12.394;2022-12-07T08:45:20;3.50;99.90
25328;DHT22;13279;51.300;12.394;2022-12-07T08:47:51;3.70;99.90
25328;DHT22;13279;51.300;12.394;2022-12-07T08:50:23;3.90;99.90
25328;DHT22;13279;51.300;12.394;2022-12-07T08:52:53;4.10;99.90
25328;DHT22;13279;51.300;12.394;2022-12-07T08:55:21;4.10;99.90
25328;DHT22;13279;51.300;12.394;2022-12-07T08:57:51;4.00;99.90
25328;DHT22;13279;51.300;12.394;2022-12-07T09:00:19;4.00;99.90
25328;DHT22;13279;51.300;12.394;2022-12-07T09:02:47;4.00;99.90
25328;DHT22;13279;51.300;12.394;2022-12-07T09:05:15;4.00;99.90
25328;DHT22;13279;51.300;12.394;2022-12-07T09:07:47;4.00;99.90
25328;DHT22;13279;51.300;12.394;2022-12-07T09:10:17;3.90;99.90
25328;DHT22;13279;51.300;12.394;2022-12-07T09:12:45;3.90;99.90
25328;DHT22;13279;51.300;12.394;2022-12-07T09:15:12;3.90;99.90
25328;DHT22;13279;51.300;12.394;2022-12-07T09:17:41;3.90;99.90
25328;DHT22;13279;51.300;12.394;2022-12-07T09:20:11;4.00;99.90
25328;DHT22;13279;51.300;12.394;2022-12-07T09:22:39;4.10;99.90
25328;DHT22;13279;51.300;12.394;2022-12-07T09:25:08;4.10;99.90
25328;DHT22;13279;51.300;12.394;2022-12-07T09:27:39;4.20;99.90
25328;DHT22;13279;51.300;12.394;2022-12-07T09:30:29;4.00;99.90
25328;DHT22;13279;51.300;12.394;2022-12-07T09:32:57;4.10;99.90
25328;DHT22;13279;51.300;12.394;2022-12-07T09:35:25;4.10;99.90
25328;DHT22;13279;51.300;12.394;2022-12-07T09:37:52;4.10;99.90
25328;DHT22;13279;51.300;12.394;2022-12-07T09:40:22;4.00;99.90
25328;DHT22;13279;51.300;12.394;2022-12-07T09:42:52;4.00;99.90
25328;DHT22;13279;51.300;12.394;2022-12-07T09:45:23;4.00;99.90
25328;DHT22;13279;51.300;12.394;2022-12-07T09:47:51;4.00;99.90
25328;DHT22;13279;51.300;12.394;2022-12-07T09:50:21;4.00;99.90
25328;DHT22;13279;51.300;12.394;2022-12-07T09:52:51;4.10;99.90
25328;DHT22;13279;51.300;12.394;2022-12-07T09:55:24;4.00;99.90
25328;DHT22;13279;51.300;12.394;2022-12-07T09:57:52;4.10;99.90
25328;DHT22;13279;51.300;12.394;2022-12-07T10:00:22;4.00;99.90
25328;DHT22;13279;51.300;12.394;2022-12-07T10:02:53;4.10;99.90
25328;DHT22;13279;51.300;12.394;2022-12-07T10:05:24;4.20;99.90
25328;DHT22;13279;51.300;12.394;2022-12-07T10:07:53;4.20;99.90
25328;DHT22;13279;51.300;12.394;2022-12-07T10:10:24;4.20;99.90
25328;DHT22;13279;51.300;12.394;2022-12-07T10:12:56;4.30;99.90
25328;DHT22;13279;51.300;12.394;2022-12-07T10:15:23;4.30;99.90
25328;DHT22;13279;51.300;12.394;2022-12-07T10:18:17;4.30;99.90
25328;DHT22;13279;51.300;12.394;2022-12-07T10:20:46;4.30;99.90
25328;DHT22;13279;51.300;12.394;2022-12-07T10:23:15;4.40;99.90
25328;DHT22;13279;51.300;12.394;2022-12-07T10:25:45;4.40;99.90
25328;DHT22;13279;51.300;12.394;2022-12-07T10:28:16;4.40;99.90
25328;DHT22;13279;51.300;12.394;2022-12-07T10:30:53;4.40;99.90
25328;DHT22;13279;51.300;12.394;2022-12-07T10:33:36;4.40;99.90
25328;DHT22;13279;51.300;12.394;2022-12-07T10:36:20;4.40;99.90
25328;DHT22;13279;51.300;12.394;2022-12-07T10:39:01;4.40;99.90
25328;DHT22;13279;51.300;12.394;2022-12-07T10:41:34;4.40;99.90
25328;DHT22;13279;51.300;12.394;2022-12-07T10:44:07;4.50;99.90
25328;DHT22;13279;51.300;12.394;2022-12-07T10:50:06;4.50;99.90
25328;DHT22;13279;51.300;12.394;2022-12-07T10:52:52;4.40;99.90
25328;DHT22;13279;51.300;12.394;2022-12-07T10:55:26;4.40;99.90
25328;DHT22;13279;51.300;12.394;2022-12-07T10:58:18;4.40;99.90
25328;DHT22;13279;51.300;12.394;2022-12-07T11:00:56;4.50;99.90
25328;DHT22;13279;51.300;12.394;2022-12-07T11:03:39;4.50;99.90
25328;DHT22;13279;51.300;12.394;2022-12-07T11:06:24;4.50;99.90
25328;DHT22;13279;51.300;12.394;2022-12-07T11:09:01;4.50;99.90
25328;DHT22;13279;51.300;12.394;2022-12-07T11:11:34;4.50;99.90
25328;DHT22;13279;51.300;12.394;2022-12-07T11:14:12;4.50;99.90
25328;DHT22;13279;51.300;12.394;2022-12-07T11:16:52;4.50;99.90
25328;DHT22;13279;51.300;12.394;2022-12-07T11:19:44;4.50;99.90
25328;DHT22;13279;51.300;12.394;2022-12-07T11:22:20;4.50;99.90
25328;DHT22;13279;51.300;12.394;2022-12-07T11:24:57;4.50;99.90
25328;DHT22;13279;51.300;12.394;2022-12-07T11:27:34;4.40;99.90
25328;DHT22;13279;51.300;12.394;2022-12-07T11:30:18;4.50;99.90
25328;DHT22;13279;51.300;12.394;2022-12-07T11:33:08;4.40;99.90
25328;DHT22;13279;51.300;12.394;2022-12-07T11:35:46;4.40;99.90
25328;DHT22;13279;51.300;12.394;2022-12-07T11:38:24;4.50;99.90
25328;DHT22;13279;51.300;12.394;2022-12-07T11:40:56;4.60;99.90
25328;DHT22;13279;51.300;12.394;2022-12-07T11:43:50;4.70;99.90
25328;DHT22;13279;51.300;12.394;2022-12-07T11:46:24;4.70;99.90
25328;DHT22;13279;51.300;12.394;2022-12-07T11:49:02;4.70;99.90
25328;DHT22;13279;51.300;12.394;2022-12-07T11:51:35;4.80;99.90
25328;DHT22;13279;51.300;12.394;2022-12-07T11:54:12;4.80;99.90
25328;DHT22;13279;51.300;12.394;2022-12-07T11:56:42;4.80;99.90
25328;DHT22;13279;51.300;12.394;2022-12-07T11:59:16;4.80;99.90
25328;DHT22;13279;51.300;12.394;2022-12-07T12:01:53;4.80;99.90
25328;DHT22;13279;51.300;12.394;2022-12-07T12:04:38;4.90;99.90
25328;DHT22;13279;51.300;12.394;2022-12-07T12:07:14;4.90;99.90
25328;DHT22;13279;51.300;12.394;2022-12-07T12:09:47;5.00;99.90
25328;DHT22;13279;51.300;12.394;2022-12-07T12:12:47;4.90;99.90
25328;DHT22;13279;51.300;12.394;2022-12-07T12:15:28;5.00;99.90
25328;DHT22;13279;51.300;12.394;2022-12-07T12:18:24;5.00;99.90
25328;DHT22;13279;51.300;12.394;2022-12-07T12:20:58;5.10;99.90
25328;DHT22;13279;51.300;12.394;2022-12-07T12:23:36;5.10;99.90
25328;DHT22;13279;51.300;12.394;2022-12-07T12:26:07;5.10;99.90
25328;DHT22;13279;51.300;12.394;2022-12-07T12:28:42;5.10;99.90
25328;DHT22;13279;51.300;12.394;2022-12-07T12:31:31;5.20;99.90
25328;DHT22;13279;51.300;12.394;2022-12-07T12:34:04;5.20;99.90
25328;DHT22;13279;51.300;12.394;2022-12-07T12:36:45;5.20;99.90
25328;DHT22;13279;51.300;12.394;2022-12-07T12:39:14;5.20;99.90
25328;DHT22;13279;51.300;12.394;2022-12-07T12:41:57;5.30;99.90
25328;DHT22;13279;51.300;12.394;2022-12-07T12:47:55;5.40;99.90
25328;DHT22;13279;51.300;12.394;2022-12-07T12:50:27;5.40;99.90
25328;DHT22;13279;51.300;12.394;2022-12-07T12:53:02;5.40;99.90
25328;DHT22;13279;51.300;12.394;2022-12-07T12:55:52;5.40;99.90
25328;DHT22;13279;51.300;12.394;2022-12-07T12:58:31;5.40;99.90
25328;DHT22;13279;51.300;12.394;2022-12-07T13:04:27;5.30;99.90
25328;DHT22;13279;51.300;12.394;2022-12-07T13:07:11;5.30;99.90
25328;DHT22;13279;51.300;12.394;2022-12-07T13:09:44;5.30;99.90
25328;DHT22;13279;51.300;12.394;2022-12-07T13:12:14;5.20;99.90
25328;DHT22;13279;51.300;12.394;2022-12-07T13:14:56;5.30;99.90
25328;DHT22;13279;51.300;12.394;2022-12-07T13:20:44;5.30;99.90
25328;DHT22;13279;51.300;12.394;2022-12-07T13:23:16;5.30;99.90
25328;DHT22;13279;51.300;12.394;2022-12-07T13:25:51;5.30;99.90
25328;DHT22;13279;51.300;12.394;2022-12-07T13:28:20;5.30;99.90
25328;DHT22;13279;51.300;12.394;2022-12-07T13:31:32;5.30;99.90
25328;DHT22;13279;51.300;12.394;2022-12-07T13:34:01;5.30;99.90
25328;DHT22;13279;51.300;12.394;2022-12-07T13:36:31;5.30;99.90
25328;DHT22;13279;51.300;12.394;2022-12-07T13:39:26;5.40;99.90
25328;DHT22;13279;51.300;12.394;2022-12-07T13:41:54;5.40;99.90
25328;DHT22;13279;51.300;12.394;2022-12-07T13:44:24;5.40;99.90
25328;DHT22;13279;51.300;12.394;2022-12-07T13:46:57;5.30;99.90
25328;DHT22;13279;51.300;12.394;2022-12-07T13:49:29;5.40;99.90
25328;DHT22;13279;51.300;12.394;2022-12-07T13:52:15;5.40;99.90
25328;DHT22;13279;51.300;12.394;2022-12-07T13:54:49;5.30;99.90
25328;DHT22;13279;51.300;12.394;2022-12-07T13:57:17;5.30;99.90
25328;DHT22;13279;51.300;12.394;2022-12-07T13:59:45;5.30;99.90
25328;DHT22;13279;51.300;12.394;2022-12-07T14:02:21;5.20;99.90
25328;DHT22;13279;51.300;12.394;2022-12-07T14:04:50;5.20;99.90
25328;DHT22;13279;51.300;12.394;2022-12-07T14:07:23;5.20;99.90
25328;DHT22;13279;51.300;12.394;2022-12-07T14:09:58;5.20;99.90
25328;DHT22;13279;51.300;12.394;2022-12-07T14:12:27;5.20;99.90
25328;DHT22;13279;51.300;12.394;2022-12-07T14:14:56;5.20;99.90
25328;DHT22;13279;51.300;12.394;2022-12-07T14:17:25;5.10;99.90
25328;DHT22;13279;51.300;12.394;2022-12-07T14:19:54;5.10;99.90
25328;DHT22;13279;51.300;12.394;2022-12-07T14:22:31;5.10;99.90
25328;DHT22;13279;51.300;12.394;2022-12-07T14:25:18;5.10;99.90
25328;DHT22;13279;51.300;12.394;2022-12-07T14:27:52;5.00;99.90
25328;DHT22;13279;51.300;12.394;2022-12-07T14:30:23;5.00;99.90
25328;DHT22;13279;51.300;12.394;2022-12-07T14:32:53;5.00;99.90
25328;DHT22;13279;51.300;12.394;2022-12-07T14:35:21;5.20;99.90
25328;DHT22;13279;51.300;12.394;2022-12-07T14:37:49;5.20;99.90
25328;DHT22;13279;51.300;12.394;2022-12-07T14:40:20;5.10;99.90
25328;DHT22;13279;51.300;12.394;2022-12-07T14:42:55;5.10;99.90
25328;DHT22;13279;51.300;12.394;2022-12-07T14:45:23;4.90;99.90
25328;DHT22;13279;51.300;12.394;2022-12-07T14:47:51;4.90;99.90
25328;DHT22;13279;51.300;12.394;2022-12-07T14:50:20;4.80;99.90
25328;DHT22;13279;51.300;12.394;2022-12-07T14:52:51;4.70;99.90
25328;DHT22;13279;51.300;12.394;2022-12-07T14:55:24;4.60;99.90
25328;DHT22;13279;51.300;12.394;2022-12-07T14:57:51;4.60;99.90
25328;DHT22;13279;51.300;12.394;2022-12-07T15:00:20;4.60;99.90
25328;DHT22;13279;51.300;12.394;2022-12-07T15:02:49;4.60;99.90
25328;DHT22;13279;51.300;12.394;2022-12-07T15:05:16;4.60;99.90
25328;DHT22;13279;51.300;12.394;2022-12-07T15:07:45;4.50;99.90
25328;DHT22;13279;51.300;12.394;2022-12-07T15:10:17;4.50;99.90
25328;DHT22;13279;51.300;12.394;2022-12-07T15:12:47;4.50;99.90
25328;DHT22;13279;51.300;12.394;2022-12-07T15:15:14;4.50;99.90
25328;DHT22;13279;51.300;12.394;2022-12-07T15:17:43;4.50;99.90
25328;DHT22;13279;51.300;12.394;2022-12-07T15:20:12;4.50;99.90
25328;DHT22;13279;51.300;12.394;2022-12-07T15:22:40;4.50;99.90
25328;DHT22;13279;51.300;12.394;2022-12-07T15:25:09;4.50;99.90
25328;DHT22;13279;51.300;12.394;2022-12-07T15:27:39;4.50;99.90
25328;DHT22;13279;51.300;12.394;2022-12-07T15:30:09;4.50;99.90
25328;DHT22;13279;51.300;12.394;2022-12-07T15:32:36;4.50;99.90
25328;DHT22;13279;51.300;12.394;2022-12-07T15:35:04;4.40;99.90
25328;DHT22;13279;51.300;12.394;2022-12-07T15:37:32;4.40;99.90
25328;DHT22;13279;51.300;12.394;2022-12-07T15:39:59;4.50;99.90
25328;DHT22;13279;51.300;12.394;2022-12-07T15:42:26;4.50;99.90
25328;DHT22;13279;51.300;12.394;2022-12-07T15:44:54;4.50;99.90
25328;DHT22;13279;51.300;12.394;2022-12-07T15:47:31;4.50;99.90
25328;DHT22;13279;51.300;12.394;2022-12-07T15:49:58;4.50;99.90
25328;DHT22;13279;51.300;12.394;2022-12-07T15:52:26;4.50;99.90
25328;DHT22;13279;51.300;12.394;2022-12-07T15:54:54;4.50;99.90
25328;DHT22;13279;51.300;12.394;2022-12-07T15:57:21;4.50;99.90
25328;DHT22;13279;51.300;12.394;2022-12-07T15:59:49;4.50;99.90
25328;DHT22;13279;51.300;12.394;2022-12-07T16:02:16;4.50;99.90
25328;DHT22;13279;51.300;12.394;2022-12-07T16:04:45;4.60;99.90
25328;DHT22;13279;51.300;12.394;2022-12-07T16:07:13;4.40;99.90
25328;DHT22;13279;51.300;12.394;2022-12-07T16:09:41;4.50;99.90
25328;DHT22;13279;51.300;12.394;2022-12-07T16:12:09;4.50;99.90
25328;DHT22;13279;51.300;12.394;2022-12-07T16:14:37;4.40;99.90
25328;DHT22;13279;51.300;12.394;2022-12-07T16:17:04;4.40;99.90